sensor_id;sensor_type;location;lat;lon;timestamp;pressure;altitude;pressure_sealevel;temperature;humidity
15914;BME280;8055;51.930;8.840;2023-04-04T00:01:15;78600.53;;;-145.72;100.00
15914;BME280;8055;51.930;8.840;2023-04-04T00:03:41;78608.81;;;-145.72;100.00
15914;BME280;8055;51.930;8.840;2023-04-04T00:06:07;78606.75;;;-145.72;100.00
15914;BME280;8055;51.930;8.840;2023-04-04T00:08:33;78612.94;;;-145.72;100.00
15914;BME280;8055;51.930;8.840;2023-04-04T00:10:58;78612.94;;;-145.72;100.00
15914;BME280;8055;51.930;8.840;2023-04-04T00:13:24;78621.22;;;-145.72;100.00
15914;BME280;8055;51.930;8.840;2023-04-04T00:15:51;78623.31;;;-145.72;100.00
15914;BME280;8055;51.930;8.840;2023-04-04T00:18:16;78627.44;;;-145.72;100.00
15914;BME280;8055;51.930;8.840;2023-04-04T00:20:42;78631.59;;;-145.72;100.00
15914;BME280;8055;51.930;8.840;2023-04-04T00:23:07;78623.31;;;-145.72;100.00
15914;BME280;8055;51.930;8.840;2023-04-04T00:25:38;78625.38;;;-145.72;100.00
15914;BME280;8055;51.930;8.840;2023-04-04T00:28:04;78633.66;;;-145.72;100.00
15914;BME280;8055;51.930;8.840;2023-04-04T00:30:29;78637.81;;;-145.72;100.00
15914;BME280;8055;51.930;8.840;2023-04-04T00:32:55;78650.22;;;-145.72;100.00
15914;BME280;8055;51.930;8.840;2023-04-04T00:35:22;78644.00;;;-145.72;100.00
15914;BME280;8055;51.930;8.840;2023-04-04T00:37:47;78641.94;;;-145.72;100.00
15914;BME280;8055;51.930;8.840;2023-04-04T00:40:13;78627.44;;;-145.72;100.00
15914;BME280;8055;51.930;8.840;2023-04-04T00:42:39;78639.88;;;-145.72;100.00
15914;BME280;8055;51.930;8.840;2023-04-04T00:45:05;78639.88;;;-145.72;100.00
15914;BME280;8055;51.930;8.840;2023-04-04T00:47:31;78641.94;;;-145.72;100.00
15914;BME280;8055;51.930;8.840;2023-04-04T00:49:57;78648.16;;;-145.72;100.00
15914;BME280;8055;51.930;8.840;2023-04-04T00:52:23;78639.88;;;-145.72;100.00
15914;BME280;8055;51.930;8.840;2023-04-04T00:54:48;78641.94;;;-145.72;100.00
15914;BME280;8055;51.930;8.840;2023-04-04T00:57:14;78650.22;;;-145.72;100.00
15914;BME280;8055;51.930;8.840;2023-04-04T00:59:41;78648.16;;;-145.72;100.00
15914;BME280;8055;51.930;8.840;2023-04-04T01:02:07;78646.09;;;-145.72;100.00
15914;BME280;8055;51.930;8.840;2023-04-04T01:04:33;78656.44;;;-145.72;100.00
15914;BME280;8055;51.930;8.840;2023-04-04T01:06:59;78666.78;;;-145.72;100.00
15914;BME280;8055;51.930;8.840;2023-04-04T01:09:26;78670.94;;;-145.72;100.00
15914;BME280;8055;51.930;8.840;2023-04-04T01:11:52;78675.06;;;-145.72;100.00
15914;BME280;8055;51.930;8.840;2023-04-04T01:14:19;78677.16;;;-145.72;100.00
15914;BME280;8055;51.930;8.840;2023-04-04T01:16:45;78670.94;;;-145.72;100.00
15914;BME280;8055;51.930;8.840;2023-04-04T01:19:20;78675.06;;;-145.72;100.00
15914;BME280;8055;51.930;8.840;2023-04-04T01:21:47;78662.66;;;-145.72;100.00
15914;BME280;8055;51.930;8.840;2023-04-04T01:24:15;78673.00;;;-145.72;100.00
15914;BME280;8055;51.930;8.840;2023-04-04T01:26:41;78673.00;;;-145.72;100.00
15914;BME280;8055;51.930;8.840;2023-04-04T01:29:06;78668.88;;;-145.72;100.00
15914;BME280;8055;51.930;8.840;2023-04-04T01:31:36;78668.88;;;-145.72;100.00
15914;BME280;8055;51.930;8.840;2023-04-04T01:34:12;78668.88;;;-145.72;100.00
15914;BME280;8055;51.930;8.840;2023-04-04T01:36:54;78660.56;;;-145.72;100.00
15914;BME280;8055;51.930;8.840;2023-04-04T01:39:26;78677.16;;;-145.72;100.00
15914;BME280;8055;51.930;8.840;2023-04-04T01:41:57;78675.06;;;-145.72;100.00
15914;BME280;8055;51.930;8.840;2023-04-04T01:44:24;78675.06;;;-145.72;100.00
15914;BME280;8055;51.930;8.840;2023-04-04T01:46:53;78668.88;;;-145.72;100.00
15914;BME280;8055;51.930;8.840;2023-04-04T01:49:22;78681.28;;;-145.72;100.00
15914;BME280;8055;51.930;8.840;2023-04-04T01:51:48;78675.06;;;-145.72;100.00
15914;BME280;8055;51.930;8.840;2023-04-04T01:54:14;78677.16;;;-145.72;100.00
15914;BME280;8055;51.930;8.840;2023-04-04T01:56:41;78670.94;;;-145.72;100.00
15914;BME280;8055;51.930;8.840;2023-04-04T01:59:06;78673.00;;;-145.72;100.00
15914;BME280;8055;51.930;8.840;2023-04-04T02:01:31;78681.28;;;-145.72;100.00
15914;BME280;8055;51.930;8.840;2023-04-04T02:03:57;78691.63;;;-145.72;100.00
15914;BME280;8055;51.930;8.840;2023-04-04T02:06:23;78685.44;;;-145.72;100.00
15914;BME280;8055;51.930;8.840;2023-04-04T02:08:48;78697.84;;;-145.72;100.00
15914;BME280;8055;51.930;8.840;2023-04-04T02:11:14;78691.63;;;-145.72;100.00
15914;BME280;8055;51.930;8.840;2023-04-04T02:13:39;78687.50;;;-145.72;100.00
15914;BME280;8055;51.930;8.840;2023-04-04T02:16:09;78683.34;;;-145.72;100.00
15914;BME280;8055;51.930;8.840;2023-04-04T02:18:34;78683.34;;;-145.72;100.00
15914;BME280;8055;51.930;8.840;2023-04-04T02:21:00;78685.44;;;-145.72;100.00
15914;BME280;8055;51.930;8.840;2023-04-04T02:23:26;78677.16;;;-145.72;100.00
15914;BME280;8055;51.930;8.840;2023-04-04T02:25:51;78679.22;;;-145.72;100.00
15914;BME280;8055;51.930;8.840;2023-04-04T02:28:16;78683.34;;;-145.72;100.00
15914;BME280;8055;51.930;8.840;2023-04-04T02:30:42;78695.78;;;-145.72;100.00
15914;BME280;8055;51.930;8.840;2023-04-04T02:33:08;78702.00;;;-145.72;100.00
15914;BME280;8055;51.930;8.840;2023-04-04T02:35:33;78702.00;;;-145.72;100.00
15914;BME280;8055;51.930;8.840;2023-04-04T02:37:58;78693.72;;;-145.72;100.00
15914;BME280;8055;51.930;8.840;2023-04-04T02:40:24;78697.84;;;-145.72;100.00
15914;BME280;8055;51.930;8.840;2023-04-04T02:42:49;78695.78;;;-145.72;100.00
15914;BME280;8055;51.930;8.840;2023-04-04T02:45:15;78689.56;;;-145.72;100.00
15914;BME280;8055;51.930;8.840;2023-04-04T02:47:41;78689.56;;;-145.72;100.00
15914;BME280;8055;51.930;8.840;2023-04-04T02:50:08;78702.00;;;-145.72;100.00
15914;BME280;8055;51.930;8.840;2023-04-04T02:52:34;78706.13;;;-145.72;100.00
15914;BME280;8055;51.930;8.840;2023-04-04T02:54:59;78704.06;;;-145.72;100.00
15914;BME280;8055;51.930;8.840;2023-04-04T02:57:24;78697.84;;;-145.72;100.00
15914;BME280;8055;51.930;8.840;2023-04-04T02:59:50;78697.84;;;-145.72;100.00
15914;BME280;8055;51.930;8.840;2023-04-04T03:02:15;78702.00;;;-145.72;100.00
15914;BME280;8055;51.930;8.840;2023-04-04T03:04:41;78697.84;;;-145.72;100.00
15914;BME280;8055;51.930;8.840;2023-04-04T03:07:06;78702.00;;;-145.72;100.00
15914;BME280;8055;51.930;8.840;2023-04-04T03:09:32;78702.00;;;-145.72;100.00
15914;BME280;8055;51.930;8.840;2023-04-04T03:11:57;78704.06;;;-145.72;100.00
15914;BME280;8055;51.930;8.840;2023-04-04T03:14:22;78704.06;;;-145.72;100.00
15914;BME280;8055;51.930;8.840;2023-04-04T03:16:51;78697.84;;;-145.72;100.00
15914;BME280;8055;51.930;8.840;2023-04-04T03:19:17;78704.06;;;-145.72;100.00
15914;BME280;8055;51.930;8.840;2023-04-04T03:21:42;78706.13;;;-145.72;100.00
15914;BME280;8055;51.930;8.840;2023-04-04T03:24:08;78691.63;;;-145.72;100.00
15914;BME280;8055;51.930;8.840;2023-04-04T03:26:33;78693.72;;;-145.72;100.00
15914;BME280;8055;51.930;8.840;2023-04-04T03:28:59;78695.78;;;-145.72;100.00
15914;BME280;8055;51.930;8.840;2023-04-04T03:31:24;78708.22;;;-145.72;100.00
15914;BME280;8055;51.930;8.840;2023-04-04T03:33:49;78704.06;;;-145.72;100.00
15914;BME280;8055;51.930;8.840;2023-04-04T03:36:15;78704.06;;;-145.72;100.00
15914;BME280;8055;51.930;8.840;2023-04-04T03:38:41;78704.06;;;-145.72;100.00
15914;BME280;8055;51.930;8.840;2023-04-04T03:41:06;78697.84;;;-145.72;100.00
15914;BME280;8055;51.930;8.840;2023-04-04T03:43:32;78702.00;;;-145.72;100.00
15914;BME280;8055;51.930;8.840;2023-04-04T03:46:02;78699.91;;;-145.72;100.00
15914;BME280;8055;51.930;8.840;2023-04-04T03:48:28;78710.28;;;-145.72;100.00
15914;BME280;8055;51.930;8.840;2023-04-04T03:50:57;78714.41;;;-145.72;100.00
15914;BME280;8055;51.930;8.840;2023-04-04T03:53:23;78706.13;;;-145.72;100.00
15914;BME280;8055;51.930;8.840;2023-04-04T03:55:49;78702.00;;;-145.72;100.00
15914;BME280;8055;51.930;8.840;2023-04-04T03:58:15;78706.13;;;-145.72;100.00
15914;BME280;8055;51.930;8.840;2023-04-04T04:00:40;78710.28;;;-145.72;100.00
15914;BME280;8055;51.930;8.840;2023-04-04T04:03:06;78716.50;;;-145.72;100.00
15914;BME280;8055;51.930;8.840;2023-04-04T04:05:31;78716.50;;;-145.72;100.00
15914;BME280;8055;51.930;8.840;2023-04-04T04:07:57;78716.50;;;-145.72;100.00
15914;BME280;8055;51.930;8.840;2023-04-04T04:10:22;78722.69;;;-145.72;100.00
15914;BME280;8055;51.930;8.840;2023-04-04T04:12:47;78728.91;;;-145.72;100.00
15914;BME280;8055;51.930;8.840;2023-04-04T04:15:13;78718.56;;;-145.72;100.00
15914;BME280;8055;51.930;8.840;2023-04-04T04:17:39;78716.50;;;-145.72;100.00
15914;BME280;8055;51.930;8.840;2023-04-04T04:20:09;78710.28;;;-145.72;100.00
15914;BME280;8055;51.930;8.840;2023-04-04T04:22:34;78699.91;;;-145.72;100.00
15914;BME280;8055;51.930;8.840;2023-04-04T04:25:00;78706.13;;;-145.72;100.00
15914;BME280;8055;51.930;8.840;2023-04-04T04:27:26;78716.50;;;-145.72;100.00
15914;BME280;8055;51.930;8.840;2023-04-04T04:29:51;78716.50;;;-145.72;100.00
15914;BME280;8055;51.930;8.840;2023-04-04T04:32:17;78724.78;;;-145.72;100.00
15914;BME280;8055;51.930;8.840;2023-04-04T04:34:43;78714.41;;;-145.72;100.00
15914;BME280;8055;51.930;8.840;2023-04-04T04:37:08;78712.34;;;-145.72;100.00
15914;BME280;8055;51.930;8.840;2023-04-04T04:39:33;78720.63;;;-145.72;100.00
15914;BME280;8055;51.930;8.840;2023-04-04T04:42:00;78718.56;;;-145.72;100.00
15914;BME280;8055;51.930;8.840;2023-04-04T04:44:26;78718.56;;;-145.72;100.00
15914;BME280;8055;51.930;8.840;2023-04-04T04:46:51;78718.56;;;-145.72;100.00
15914;BME280;8055;51.930;8.840;2023-04-04T04:49:17;78712.34;;;-145.72;100.00
15914;BME280;8055;51.930;8.840;2023-04-04T04:51:42;78726.84;;;-145.72;100.00
15914;BME280;8055;51.930;8.840;2023-04-04T04:54:07;78722.69;;;-145.72;100.00
15914;BME280;8055;51.930;8.840;2023-04-04T04:56:33;78722.69;;;-145.72;100.00
15914;BME280;8055;51.930;8.840;2023-04-04T04:58:58;78716.50;;;-145.72;100.00
15914;BME280;8055;51.930;8.840;2023-04-04T05:01:24;78730.97;;;-145.72;100.00
15914;BME280;8055;51.930;8.840;2023-04-04T05:03:49;78741.34;;;-145.72;100.00
15914;BME280;8055;51.930;8.840;2023-04-04T05:06:15;78741.34;;;-145.72;100.00
15914;BME280;8055;51.930;8.840;2023-04-04T05:08:40;78730.97;;;-145.72;100.00
15914;BME280;8055;51.930;8.840;2023-04-04T05:11:06;78743.41;;;-145.72;100.00
15914;BME280;8055;51.930;8.840;2023-04-04T05:13:31;78739.25;;;-145.72;100.00
15914;BME280;8055;51.930;8.840;2023-04-04T05:15:57;78730.97;;;-145.72;100.00
15914;BME280;8055;51.930;8.840;2023-04-04T05:18:22;78735.13;;;-145.72;100.00
15914;BME280;8055;51.930;8.840;2023-04-04T05:20:52;78739.25;;;-145.72;100.00
15914;BME280;8055;51.930;8.840;2023-04-04T05:23:18;78739.25;;;-145.72;100.00
15914;BME280;8055;51.930;8.840;2023-04-04T05:25:43;78755.84;;;-145.72;100.00
15914;BME280;8055;51.930;8.840;2023-04-04T05:28:09;78751.69;;;-145.72;100.00
15914;BME280;8055;51.930;8.840;2023-04-04T05:30:34;78739.25;;;-145.72;100.00
15914;BME280;8055;51.930;8.840;2023-04-04T05:33:00;78730.97;;;-145.72;100.00
15914;BME280;8055;51.930;8.840;2023-04-04T05:35:25;78728.91;;;-145.72;100.00
15914;BME280;8055;51.930;8.840;2023-04-04T05:37:50;78726.84;;;-145.72;100.00
15914;BME280;8055;51.930;8.840;2023-04-04T05:40:16;78720.63;;;-145.72;100.00
15914;BME280;8055;51.930;8.840;2023-04-04T05:42:41;78728.91;;;-145.72;100.00
15914;BME280;8055;51.930;8.840;2023-04-04T05:45:08;78733.06;;;-145.72;100.00
15914;BME280;8055;51.930;8.840;2023-04-04T05:47:34;78730.97;;;-145.72;100.00
15914;BME280;8055;51.930;8.840;2023-04-04T05:49:59;78726.84;;;-145.72;100.00
15914;BME280;8055;51.930;8.840;2023-04-04T05:52:25;78710.28;;;-145.72;100.00
15914;BME280;8055;51.930;8.840;2023-04-04T05:54:51;78714.41;;;-145.72;100.00
15914;BME280;8055;51.930;8.840;2023-04-04T05:57:16;78697.84;;;-145.72;100.00
15914;BME280;8055;51.930;8.840;2023-04-04T05:59:41;78691.63;;;-145.72;100.00
15914;BME280;8055;51.930;8.840;2023-04-04T06:02:07;78681.28;;;-145.72;100.00
15914;BME280;8055;51.930;8.840;2023-04-04T06:04:32;78681.28;;;-145.72;100.00
15914;BME280;8055;51.930;8.840;2023-04-04T06:06:58;78675.06;;;-145.72;100.00
15914;BME280;8055;51.930;8.840;2023-04-04T06:09:25;78660.56;;;-145.72;100.00
15914;BME280;8055;51.930;8.840;2023-04-04T06:11:50;78660.56;;;-145.72;100.00
15914;BME280;8055;51.930;8.840;2023-04-04T06:14:15;78641.94;;;-145.72;100.00
15914;BME280;8055;51.930;8.840;2023-04-04T06:16:41;78627.44;;;-145.72;100.00
15914;BME280;8055;51.930;8.840;2023-04-04T06:19:06;78610.88;;;-145.72;100.00
15914;BME280;8055;51.930;8.840;2023-04-04T06:21:31;78594.31;;;-145.72;100.00
15914;BME280;8055;51.930;8.840;2023-04-04T06:23:57;78581.88;;;-145.72;100.00
15914;BME280;8055;51.930;8.840;2023-04-04T06:26:22;78577.75;;;-145.72;100.00
15914;BME280;8055;51.930;8.840;2023-04-04T06:28:48;78577.75;;;-145.72;100.00
15914;BME280;8055;51.930;8.840;2023-04-04T06:31:15;78569.47;;;-145.72;100.00
15914;BME280;8055;51.930;8.840;2023-04-04T06:33:41;78563.25;;;-145.72;100.00
15914;BME280;8055;51.930;8.840;2023-04-04T06:36:06;78561.19;;;-145.72;100.00
15914;BME280;8055;51.930;8.840;2023-04-04T06:38:31;78557.03;;;-145.72;100.00
15914;BME280;8055;51.930;8.840;2023-04-04T06:40:57;78554.97;;;-145.72;100.00
15914;BME280;8055;51.930;8.840;2023-04-04T06:43:22;78557.03;;;-145.72;100.00
15914;BME280;8055;51.930;8.840;2023-04-04T06:45:49;78536.34;;;-145.72;100.00
15914;BME280;8055;51.930;8.840;2023-04-04T06:48:14;78532.19;;;-145.72;100.00
15914;BME280;8055;51.930;8.840;2023-04-04T06:50:40;78517.69;;;-145.72;100.00
15914;BME280;8055;51.930;8.840;2023-04-04T06:53:07;78519.78;;;-145.72;100.00
15914;BME280;8055;51.930;8.840;2023-04-04T06:55:33;78507.34;;;-145.72;100.00
15914;BME280;8055;51.930;8.840;2023-04-04T06:57:59;78501.13;;;-145.72;100.00
15914;BME280;8055;51.930;8.840;2023-04-04T07:00:24;78490.78;;;-145.72;100.00
15914;BME280;8055;51.930;8.840;2023-04-04T07:02:56;78482.50;;;-145.72;100.00
15914;BME280;8055;51.930;8.840;2023-04-04T07:05:23;78465.94;;;-145.72;100.00
15914;BME280;8055;51.930;8.840;2023-04-04T07:07:51;78451.44;;;-145.72;100.00
15914;BME280;8055;51.930;8.840;2023-04-04T07:10:22;78439.00;;;-145.72;100.00
15914;BME280;8055;51.930;8.840;2023-04-04T07:12:47;78422.44;;;-145.72;100.00
15914;BME280;8055;51.930;8.840;2023-04-04T07:15:13;78412.09;;;-145.72;100.00
15914;BME280;8055;51.930;8.840;2023-04-04T07:17:38;78389.31;;;-145.72;100.00
15914;BME280;8055;51.930;8.840;2023-04-04T07:20:08;78374.81;;;-145.72;100.00
15914;BME280;8055;51.930;8.840;2023-04-04T07:22:37;78358.25;;;-145.72;100.00
15914;BME280;8055;51.930;8.840;2023-04-04T07:25:09;78345.84;;;-145.72;100.00
15914;BME280;8055;51.930;8.840;2023-04-04T07:27:36;78316.84;;;-145.72;100.00
15914;BME280;8055;51.930;8.840;2023-04-04T07:30:02;78312.72;;;-145.72;100.00
15914;BME280;8055;51.930;8.840;2023-04-04T07:32:28;78300.28;;;-145.72;100.00
15914;BME280;8055;51.930;8.840;2023-04-04T07:34:53;78285.78;;;-145.72;100.00
15914;BME280;8055;51.930;8.840;2023-04-04T07:37:19;78275.44;;;-145.72;100.00
15914;BME280;8055;51.930;8.840;2023-04-04T07:39:46;78267.16;;;-145.72;100.00
15914;BME280;8055;51.930;8.840;2023-04-04T07:42:14;78248.53;;;-145.72;100.00
15914;BME280;8055;51.930;8.840;2023-04-04T07:44:40;78223.69;;;-145.72;100.00
15914;BME280;8055;51.930;8.840;2023-04-04T07:47:06;78217.47;;;-145.72;100.00
15914;BME280;8055;51.930;8.840;2023-04-04T07:49:32;78192.63;;;-145.72;100.00
15914;BME280;8055;51.930;8.840;2023-04-04T07:51:57;78192.63;;;-145.72;100.00
15914;BME280;8055;51.930;8.840;2023-04-04T07:54:23;78169.84;;;-145.72;100.00
15914;BME280;8055;51.930;8.840;2023-04-04T07:56:49;78163.63;;;-145.72;100.00
15914;BME280;8055;51.930;8.840;2023-04-04T07:59:15;78151.22;;;-145.72;100.00
15914;BME280;8055;51.930;8.840;2023-04-04T08:01:40;78140.84;;;-145.72;100.00
15914;BME280;8055;51.930;8.840;2023-04-04T08:04:06;78122.22;;;-145.72;100.00
15914;BME280;8055;51.930;8.840;2023-04-04T08:06:31;78118.09;;;-145.72;100.00
15914;BME280;8055;51.930;8.840;2023-04-04T08:08:58;78105.66;;;-145.72;100.00
15914;BME280;8055;51.930;8.840;2023-04-04T08:11:23;78097.38;;;-145.72;100.00
15914;BME280;8055;51.930;8.840;2023-04-04T08:13:49;78080.81;;;-145.72;100.00
15914;BME280;8055;51.930;8.840;2023-04-04T08:16:15;78076.69;;;-145.72;100.00
15914;BME280;8055;51.930;8.840;2023-04-04T08:18:40;78055.97;;;-145.72;100.00
15914;BME280;8055;51.930;8.840;2023-04-04T08:21:06;78051.84;;;-145.72;100.00
15914;BME280;8055;51.930;8.840;2023-04-04T08:23:31;78039.41;;;-145.72;100.00
15914;BME280;8055;51.930;8.840;2023-04-04T08:25:56;78024.91;;;-145.72;100.00
15914;BME280;8055;51.930;8.840;2023-04-04T08:28:24;78027.00;;;-145.72;100.00
15914;BME280;8055;51.930;8.840;2023-04-04T08:30:53;78022.84;;;-145.72;100.00
15914;BME280;8055;51.930;8.840;2023-04-04T08:33:22;78027.00;;;-145.72;100.00
15914;BME280;8055;51.930;8.840;2023-04-04T08:35:49;78018.72;;;-145.72;100.00
15914;BME280;8055;51.930;8.840;2023-04-04T08:38:14;78002.16;;;-145.72;100.00
15914;BME280;8055;51.930;8.840;2023-04-04T08:40:40;77993.84;;;-145.72;100.00
15914;BME280;8055;51.930;8.840;2023-04-04T08:43:05;77979.38;;;-145.72;100.00
15914;BME280;8055;51.930;8.840;2023-04-04T08:45:31;77962.81;;;-145.72;100.00
15914;BME280;8055;51.930;8.840;2023-04-04T08:48:00;77933.81;;;-145.72;100.00
15914;BME280;8055;51.930;8.840;2023-04-04T08:50:27;77902.75;;;-145.72;100.00
15914;BME280;8055;51.930;8.840;2023-04-04T08:52:53;77894.47;;;-145.72;98.80
15914;BME280;8055;51.930;8.840;2023-04-04T08:55:19;77892.41;;;-145.72;100.00
15914;BME280;8055;51.930;8.840;2023-04-04T08:57:45;77877.91;;;-145.72;99.44
15914;BME280;8055;51.930;8.840;2023-04-04T09:00:11;77871.72;;;-145.72;99.59
15914;BME280;8055;51.930;8.840;2023-04-04T09:05:13;77842.72;;;-145.72;94.93
15914;BME280;8055;51.930;8.840;2023-04-04T09:07:39;77836.50;;;-145.72;84.72
15914;BME280;8055;51.930;8.840;2023-04-04T09:10:07;77834.44;;;-145.72;92.11
15914;BME280;8055;51.930;8.840;2023-04-04T09:12:35;77853.06;;;-145.72;89.25
15914;BME280;8055;51.930;8.840;2023-04-04T09:15:01;77838.59;;;-145.72;95.64
15914;BME280;8055;51.930;8.840;2023-04-04T09:17:27;77815.81;;;-145.72;90.97
15914;BME280;8055;51.930;8.840;2023-04-04T09:19:54;77807.53;;;-145.72;82.94
15914;BME280;8055;51.930;8.840;2023-04-04T09:22:19;77805.47;;;-145.72;79.28
15914;BME280;8055;51.930;8.840;2023-04-04T09:24:45;77766.13;;;-145.72;91.22
15914;BME280;8055;51.930;8.840;2023-04-04T09:27:14;77753.72;;;-145.72;91.06
15914;BME280;8055;51.930;8.840;2023-04-04T09:29:40;77755.78;;;-145.72;84.47
15914;BME280;8055;51.930;8.840;2023-04-04T09:32:13;77739.22;;;-145.72;85.25
15914;BME280;8055;51.930;8.840;2023-04-04T09:34:40;77718.50;;;-145.72;88.47
15914;BME280;8055;51.930;8.840;2023-04-04T09:37:06;77697.81;;;-145.72;90.49
15914;BME280;8055;51.930;8.840;2023-04-04T09:39:32;77683.31;;;-145.72;88.22
15914;BME280;8055;51.930;8.840;2023-04-04T09:41:59;77662.63;;;-145.72;88.45
15914;BME280;8055;51.930;8.840;2023-04-04T09:44:26;77656.41;;;-145.72;84.33
15914;BME280;8055;51.930;8.840;2023-04-04T09:47:05;77639.84;;;-145.72;80.82
15914;BME280;8055;51.930;8.840;2023-04-04T09:49:31;77631.56;;;-145.72;87.40
15914;BME280;8055;51.930;8.840;2023-04-04T09:51:56;77623.28;;;-145.72;84.20
15914;BME280;8055;51.930;8.840;2023-04-04T09:54:22;77633.63;;;-145.72;75.49
15914;BME280;8055;51.930;8.840;2023-04-04T09:56:49;77639.84;;;-145.72;80.31
15914;BME280;8055;51.930;8.840;2023-04-04T09:59:16;77650.19;;;-145.72;74.25
15914;BME280;8055;51.930;8.840;2023-04-04T10:01:44;77646.06;;;-145.72;71.36
15914;BME280;8055;51.930;8.840;2023-04-04T10:04:09;77679.19;;;-145.72;68.56
15914;BME280;8055;51.930;8.840;2023-04-04T10:06:36;77643.97;;;-145.72;72.93
15914;BME280;8055;51.930;8.840;2023-04-04T10:09:02;77629.50;;;-145.72;72.99
15914;BME280;8055;51.930;8.840;2023-04-04T10:11:33;77652.25;;;-145.72;69.04
15914;BME280;8055;51.930;8.840;2023-04-04T10:13:59;77629.50;;;-145.72;70.81
15914;BME280;8055;51.930;8.840;2023-04-04T10:16:30;77600.50;;;-145.72;78.25
15914;BME280;8055;51.930;8.840;2023-04-04T10:18:57;77579.81;;;-145.72;74.10
15914;BME280;8055;51.930;8.840;2023-04-04T10:21:25;77583.94;;;-145.72;68.33
15914;BME280;8055;51.930;8.840;2023-04-04T10:23:52;77569.47;;;-145.72;75.62
15914;BME280;8055;51.930;8.840;2023-04-04T10:26:18;77567.38;;;-145.72;66.37
15914;BME280;8055;51.930;8.840;2023-04-04T10:28:43;77546.69;;;-145.72;76.25
15914;BME280;8055;51.930;8.840;2023-04-04T10:31:21;77525.97;;;-145.72;70.63
15914;BME280;8055;51.930;8.840;2023-04-04T10:39:23;77511.50;;;-145.72;68.12
15914;BME280;8055;51.930;8.840;2023-04-04T10:41:50;77513.56;;;-145.72;66.63
15914;BME280;8055;51.930;8.840;2023-04-04T10:44:29;77482.50;;;-145.72;72.92
15914;BME280;8055;51.930;8.840;2023-04-04T10:47:01;77461.81;;;-145.72;72.78
15914;BME280;8055;51.930;8.840;2023-04-04T10:49:28;77476.31;;;-145.72;67.09
15914;BME280;8055;51.930;8.840;2023-04-04T10:51:55;77459.75;;;-145.72;66.83
15914;BME280;8055;51.930;8.840;2023-04-04T10:54:21;77441.09;;;-145.72;67.75
15914;BME280;8055;51.930;8.840;2023-04-04T10:56:46;77422.47;;;-145.72;64.71
15914;BME280;8055;51.930;8.840;2023-04-04T10:59:14;77387.28;;;-145.72;70.79
15914;BME280;8055;51.930;8.840;2023-04-04T11:01:47;77381.06;;;-145.72;66.49
15914;BME280;8055;51.930;8.840;2023-04-04T11:04:18;77374.88;;;-145.72;65.33
15914;BME280;8055;51.930;8.840;2023-04-04T11:09:50;77393.50;;;-145.72;57.18
15914;BME280;8055;51.930;8.840;2023-04-04T11:12:19;77410.06;;;-145.72;56.32
15914;BME280;8055;51.930;8.840;2023-04-04T11:14:56;77430.75;;;-145.72;55.04
15914;BME280;8055;51.930;8.840;2023-04-04T11:20:14;77370.72;;;-145.72;61.58
15914;BME280;8055;51.930;8.840;2023-04-04T11:22:41;77333.47;;;-145.72;63.17
15914;BME280;8055;51.930;8.840;2023-04-04T11:25:31;77302.41;;;-145.72;61.03
15914;BME280;8055;51.930;8.840;2023-04-04T11:27:57;77275.50;;;-145.72;58.09
15914;BME280;8055;51.930;8.840;2023-04-04T11:30:24;77269.28;;;-145.72;54.25
15914;BME280;8055;51.930;8.840;2023-04-04T11:32:50;77258.94;;;-145.72;51.76
15914;BME280;8055;51.930;8.840;2023-04-04T11:35:16;77242.38;;;-145.72;55.82
15914;BME280;8055;51.930;8.840;2023-04-04T11:40:16;77234.09;;;-145.72;56.80
15914;BME280;8055;51.930;8.840;2023-04-04T11:42:42;77223.75;;;-145.72;54.78
15914;BME280;8055;51.930;8.840;2023-04-04T11:45:08;77205.13;;;-145.72;52.73
15914;BME280;8055;51.930;8.840;2023-04-04T11:47:34;77232.03;;;-145.72;48.94
15914;BME280;8055;51.930;8.840;2023-04-04T11:50:06;77211.34;;;-145.72;54.66
15914;BME280;8055;51.930;8.840;2023-04-04T11:52:33;77198.91;;;-145.72;53.16
15914;BME280;8055;51.930;8.840;2023-04-04T11:55:16;77163.72;;;-145.72;51.58
15914;BME280;8055;51.930;8.840;2023-04-04T11:57:41;77161.66;;;-145.72;46.57
15914;BME280;8055;51.930;8.840;2023-04-04T12:00:08;77136.81;;;-145.72;50.80
15914;BME280;8055;51.930;8.840;2023-04-04T12:02:34;77151.31;;;-145.72;47.46
15914;BME280;8055;51.930;8.840;2023-04-04T12:04:59;77145.09;;;-145.72;45.79
15914;BME280;8055;51.930;8.840;2023-04-04T12:07:27;77140.97;;;-145.72;49.62
15914;BME280;8055;51.930;8.840;2023-04-04T12:09:53;77120.25;;;-145.72;46.85
15914;BME280;8055;51.930;8.840;2023-04-04T12:12:20;77076.78;;;-145.72;49.80
15914;BME280;8055;51.930;8.840;2023-04-04T12:14:47;77085.06;;;-145.72;46.91
15914;BME280;8055;51.930;8.840;2023-04-04T12:17:14;77060.22;;;-145.72;47.99
15914;BME280;8055;51.930;8.840;2023-04-04T12:19:43;77008.47;;;-145.72;48.32
15914;BME280;8055;51.930;8.840;2023-04-04T12:22:08;77010.56;;;-145.72;43.00
15914;BME280;8055;51.930;8.840;2023-04-04T12:24:35;76983.66;;;-145.72;47.79
15914;BME280;8055;51.930;8.840;2023-04-04T12:27:01;76969.16;;;-145.72;45.79
15914;BME280;8055;51.930;8.840;2023-04-04T12:29:28;77016.75;;;-145.72;39.11
15914;BME280;8055;51.930;8.840;2023-04-04T12:32:00;76998.13;;;-145.72;41.04
15914;BME280;8055;51.930;8.840;2023-04-04T12:34:31;76929.81;;;-145.72;46.15
15914;BME280;8055;51.930;8.840;2023-04-04T12:36:57;76880.16;;;-145.72;44.81
15914;BME280;8055;51.930;8.840;2023-04-04T12:39:27;76853.25;;;-145.72;44.43
15914;BME280;8055;51.930;8.840;2023-04-04T12:42:03;76813.91;;;-145.72;43.29
15914;BME280;8055;51.930;8.840;2023-04-04T12:44:32;76820.13;;;-145.72;42.11
15914;BME280;8055;51.930;8.840;2023-04-04T12:46:59;76865.66;;;-145.72;39.35
15914;BME280;8055;51.930;8.840;2023-04-04T12:49:29;76894.63;;;-145.72;40.49
15914;BME280;8055;51.930;8.840;2023-04-04T12:51:56;76896.72;;;-145.72;40.16
15914;BME280;8055;51.930;8.840;2023-04-04T12:54:29;76888.44;;;-145.72;39.81
15914;BME280;8055;51.930;8.840;2023-04-04T12:56:58;76919.47;;;-145.72;39.90